Council, ID (83612)

11:51 PM MST on February 09, 2016 (GMT -0700)
Bear Creek | | Change Station
CLOSE
Current Station
Personal Weather Station
Location: Council, ID
Elevation: 4446 ft
Nearby Weather Stations

Elev 4446 ft 45.03 °N, 116.68 °W | Updated 58 seconds ago

Overcast
Overcast
20.5 °F
Feels Like 20 °F
N
1.7
Wind Variable Wind from NNE

Today
High -- | Low -- °F
--% Chance of Precip.
Yesterday
High -- | Low -- °F
Precip. -- in
Pressure 30.36 in
Visibility 0.5 miles
Clouds
Windchill 20 °F
Dew Point 20 °F
Humidity 99%
Rainfall 0.00 in
Snow Depth Not available.
7:56 AM 6:05 PM
Waxing Crescent, 4% visible
SPECI KMYL 100643Z AUTO 00000KT 1/2SM FZFG VV001 M07/M08 A3036 RMK AO2 T10721078
Pressure 30.36 in
Visibility 0.5 miles
Clouds
Windchill 20 °F
Dew Point 20 °F
Humidity 99%
Rainfall 0.00 in
Snow Depth Not available.
7:56 AM 6:05 PM
Waxing Crescent, 4% visible
SPECI KMYL 100643Z AUTO 00000KT 1/2SM FZFG VV001 M07/M08 A3036 RMK AO2 T10721078

10-Day Weather Forecast

Almanac

Astronomy

Feb. 09, 2016 Rise Set
Actual Time
Civil Twilight
Nautical Twilight
Astronomical Twilight
Moon
Length of Visible Light
Length of Day
Tomorrow will be .
, % of the Moon is Illuminated

Today's Extremes

State Highs State Lows

Community

WunderPhotos

Upload Photos

1,891,826 photos uploaded!

WunderBlog® & News

Nearby

Air Quality

  Air Quality AQ Index Pollutant
Not available.

Snow Depth

Station Depth Elevation

Earthquake Activity

City Distance Mag. Time & Date
Minimum magnitude displayed is 2.5.

Coastal Water Temperatures

Place Temperature

Stations

Nearby Weather Stations

Station Location Temp. Windchill Dew Point Humidity Wind Precip. Elev Updated Type
                   

Watches & Warnings

There are currently no watches in effect.